Time;durP1;ratioP1;P1;durP2;ratioP2;P2;SDS_P1;SDS_P2;PMS_P1;PMS_P2;Temp;Humidity;BMP_temperature;BMP_pressure;BME280_temperature;BME280_humidity;BME280_pressure;Samples;Min_cycle;Max_cycle;Signal;HPM_P1;HPM_P2
2023/04/06 00:00:52;;;;;;;3.83;2.20;;;17.50;1.00;;;;;;4996111;28;20492;-35
2023/04/06 00:03:19;;;;;;;3.85;2.38;;;17.50;1.00;;;;;;5012908;28;20046;-36
2023/04/06 00:05:47;;;;;;;6.38;2.80;;;17.40;1.00;;;;;;5013596;28;20059;-35
2023/04/06 00:08:15;;;;;;;5.03;2.47;;;17.40;1.00;;;;;;5013465;28;20042;-36
2023/04/06 00:10:41;;;;;;;4.22;2.85;;;17.40;1.00;;;;;;5013418;28;20063;-36
2023/04/06 00:13:08;;;;;;;4.03;2.70;;;17.40;1.00;;;;;;5012937;28;20525;-36
2023/04/06 00:15:35;;;;;;;4.57;2.50;;;17.40;1.00;;;;;;5013722;28;20417;-35
2023/04/06 00:18:03;;;;;;;3.42;2.20;;;17.40;1.00;;;;;;4979859;28;20405;-35
2023/04/06 00:20:30;;;;;;;4.95;2.20;;;17.40;1.00;;;;;;5013355;28;20042;-35
2023/04/06 00:22:56;;;;;;;5.93;3.35;;;17.40;1.00;;;;;;5011783;28;20041;-35
2023/04/06 00:25:23;;;;;;;5.20;2.95;;;17.30;1.00;;;;;;5013180;28;20069;-35
2023/04/06 00:27:50;;;;;;;4.28;2.42;;;17.40;1.00;;;;;;5013112;28;20405;-35
2023/04/06 00:30:17;;;;;;;4.15;2.45;;;17.30;1.00;;;;;;5013145;28;20050;-35
2023/04/06 00:32:44;;;;;;;3.60;2.13;;;17.30;1.00;;;;;;4994775;28;20073;-35
2023/04/06 00:35:11;;;;;;;6.72;2.40;;;17.30;1.00;;;;;;5013206;28;20144;-35
2023/04/06 00:37:37;;;;;;;3.80;2.17;;;17.30;1.00;;;;;;5012946;28;20042;-35
2023/04/06 00:40:05;;;;;;;4.13;2.55;;;17.30;1.00;;;;;;5012956;28;20042;-35
2023/04/06 00:42:32;;;;;;;9.25;2.22;;;17.30;1.00;;;;;;4995237;28;20053;-35
2023/04/06 00:45:01;;;;;;;2.85;2.00;;;17.20;1.00;;;;;;5012489;28;20521;-35
2023/04/06 00:47:28;;;;;;;5.30;2.38;;;17.20;1.00;;;;;;5012779;28;20030;-36
2023/04/06 00:49:56;;;;;;;3.33;1.90;;;17.20;1.00;;;;;;4995250;28;20054;-36
2023/04/06 00:52:23;;;;;;;5.50;2.25;;;17.20;1.00;;;;;;5012396;28;20048;-35
2023/04/06 00:54:51;;;;;;;4.07;2.35;;;17.20;1.00;;;;;;4994652;28;20410;-35
2023/04/06 00:57:19;;;;;;;4.50;2.17;;;17.20;1.00;;;;;;4995119;28;20142;-36
2023/04/06 00:59:52;;;;;;;4.10;2.35;;;17.10;1.00;;;;;;4995131;28;20070;-35
2023/04/06 01:02:20;;;;;;;4.45;2.13;;;17.20;1.00;;;;;;4994624;28;20486;-36
2023/04/06 01:04:49;;;;;;;3.95;2.33;;;17.10;1.00;;;;;;4994505;28;20046;-35
2023/04/06 01:07:28;;;;;;;4.13;2.00;;;17.10;1.00;;;;;;4994852;28;20052;-35
2023/04/06 01:10:09;;;;;;;4.47;2.30;;;17.10;1.00;;;;;;4995050;28;20070;-35
2023/04/06 01:12:38;;;;;;;3.90;2.40;;;17.10;1.00;;;;;;4994305;28;20046;-35
2023/04/06 01:15:12;;;;;;;2.47;1.77;;;17.10;1.00;;;;;;4994914;28;20472;-35
2023/04/06 01:17:41;;;;;;;4.05;2.20;;;17.10;1.00;;;;;;5012414;28;20054;-35
2023/04/06 01:20:13;;;;;;;2.30;1.70;;;17.10;1.00;;;;;;4994872;28;20084;-35
2023/04/06 01:22:40;;;;;;;3.95;2.20;;;17.00;1.00;;;;;;4993904;28;20052;-35
2023/04/06 01:25:08;;;;;;;4.72;1.95;;;17.00;1.00;;;;;;5012324;28;20048;-35
2023/04/06 01:28:01;;;;;;;3.70;2.25;;;17.00;1.00;;;;;;4994552;28;20046;-35
2023/04/06 01:31:04;;;;;;;3.75;1.85;;;17.00;1.00;;;;;;4932469;29;20044;-35
2023/04/06 01:33:57;;;;;;;7.88;2.20;;;17.00;1.00;;;;;;5007239;28;20054;-35
2023/04/06 01:36:25;;;;;;;3.22;2.00;;;17.00;1.00;;;;;;4994437;28;20058;-35
2023/04/06 01:39:01;;;;;;;3.50;1.85;;;17.00;1.00;;;;;;4994293;28;20494;-35
2023/04/06 01:41:35;;;;;;;3.58;2.10;;;17.00;1.00;;;;;;4994617;28;20042;-35
2023/04/06 01:44:02;;;;;;;3.03;1.88;;;16.90;1.00;;;;;;4993888;28;20438;-35
2023/04/06 01:46:31;;;;;;;3.60;1.75;;;16.90;1.00;;;;;;4994385;28;20038;-35
2023/04/06 01:48:59;;;;;;;3.85;2.03;;;17.00;1.00;;;;;;4994388;28;20065;-35
2023/04/06 01:51:38;;;;;;;4.65;2.42;;;16.90;1.00;;;;;;4994510;28;20058;-35
2023/04/06 01:54:08;;;;;;;6.50;2.72;;;16.90;1.00;;;;;;4993904;28;20401;-35
2023/04/06 01:56:46;;;;;;;3.85;2.08;;;16.90;1.00;;;;;;4994588;28;20057;-35
2023/04/06 01:59:39;;;;;;;4.20;2.40;;;16.90;1.00;;;;;;5007929;28;20053;-35
2023/04/06 02:02:13;;;;;;;5.88;2.33;;;16.90;1.00;;;;;;4994213;28;20686;-35
2023/04/06 02:04:45;;;;;;;3.08;1.92;;;16.90;1.00;;;;;;4994046;28;20053;-35
2023/04/06 02:07:13;;;;;;;4.32;2.83;;;16.80;1.00;;;;;;5010547;28;20092;-35
2023/04/06 02:09:41;;;;;;;4.22;1.77;;;16.80;1.00;;;;;;4978323;28;20044;-35
2023/04/06 02:12:15;;;;;;;4.78;2.80;;;16.80;1.00;;;;;;4994050;28;20045;-35
2023/04/06 02:14:42;;;;;;;3.15;2.00;;;16.80;1.00;;;;;;4993771;28;20038;-35
2023/04/06 02:17:08;;;;;;;4.03;2.38;;;16.80;1.00;;;;;;5010630;28;20042;-35
2023/04/06 02:19:36;;;;;;;4.93;2.03;;;16.80;1.00;;;;;;5011827;28;20045;-35
2023/04/06 02:22:03;;;;;;;3.80;2.03;;;16.80;1.00;;;;;;4994069;28;20149;-35
2023/04/06 02:24:30;;;;;;;4.10;2.08;;;16.80;1.00;;;;;;4993484;28;20477;-35
2023/04/06 02:26:56;;;;;;;2.90;1.88;;;16.80;1.00;;;;;;5011653;28;20057;-35
2023/04/06 02:29:26;;;;;;;5.63;2.75;;;16.80;1.00;;;;;;4994287;28;20045;-36
2023/04/06 02:31:53;;;;;;;2.65;2.17;;;16.70;1.00;;;;;;4994014;28;20562;-35
2023/04/06 02:34:21;;;;;;;3.67;2.08;;;16.70;1.00;;;;;;4993440;28;20445;-35
2023/04/06 02:36:50;;;;;;;3.63;2.53;;;16.70;1.00;;;;;;4993966;28;20050;-35
2023/04/06 02:39:17;;;;;;;4.18;2.35;;;16.70;1.00;;;;;;5011848;28;20046;-35
2023/04/06 02:41:44;;;;;;;4.22;2.25;;;16.70;1.00;;;;;;5011591;28;20329;-35
2023/04/06 02:44:17;;;;;;;4.90;2.65;;;16.70;1.00;;;;;;5009562;28;20425;-35
2023/04/06 02:46:44;;;;;;;4.03;2.58;;;16.70;1.00;;;;;;4997232;28;20049;-35
2023/04/06 02:49:10;;;;;;;3.22;2.15;;;16.70;1.00;;;;;;5014866;28;20038;-35
2023/04/06 02:51:37;;;;;;;3.67;1.80;;;16.70;1.00;;;;;;4997421;28;20042;-35
2023/04/06 02:54:21;;;;;;;3.47;1.90;;;16.70;1.00;;;;;;4996700;28;20042;-35
2023/04/06 02:56:49;;;;;;;2.65;1.77;;;16.70;1.00;;;;;;4997269;28;20144;-35
2023/04/06 02:59:16;;;;;;;3.38;2.20;;;16.60;1.00;;;;;;4997321;28;20053;-35
2023/04/06 03:01:52;;;;;;;3.30;2.28;;;16.60;1.00;;;;;;4996932;28;20057;-35
2023/04/06 03:04:21;;;;;;;2.80;1.80;;;16.60;1.00;;;;;;4996087;28;20049;-35
2023/04/06 03:06:49;;;;;;;5.93;2.22;;;16.60;1.00;;;;;;4996727;28;20584;-35
2023/04/06 03:09:28;;;;;;;3.67;2.45;;;16.60;1.00;;;;;;4997139;28;20049;-35
2023/04/06 03:11:55;;;;;;;3.60;1.88;;;16.60;1.00;;;;;;4997245;28;20056;-35
2023/04/06 03:14:23;;;;;;;3.35;2.30;;;16.60;1.00;;;;;;4996366;28;20413;-35
2023/04/06 03:16:49;;;;;;;3.53;1.88;;;16.60;1.00;;;;;;4997142;28;20058;-35
2023/04/06 03:19:20;;;;;;;5.47;2.47;;;16.50;1.00;;;;;;4996923;28;20050;-35
2023/04/06 03:21:47;;;;;;;6.50;1.98;;;16.60;1.00;;;;;;4996900;28;20137;-35
2023/04/06 03:24:15;;;;;;;3.40;2.20;;;16.60;1.00;;;;;;4996257;28;20132;-34
2023/04/06 03:26:42;;;;;;;4.97;2.50;;;16.50;1.00;;;;;;4996668;28;20044;-34
2023/04/06 03:29:09;;;;;;;3.50;1.90;;;16.50;1.00;;;;;;5014326;28;20460;-35
2023/04/06 03:31:36;;;;;;;3.78;2.35;;;16.50;1.00;;;;;;4996812;28;20073;-35
2023/04/06 03:34:07;;;;;;;2.65;1.63;;;16.50;1.00;;;;;;5013518;28;20513;-35
2023/04/06 03:36:35;;;;;;;3.30;1.95;;;16.50;1.00;;;;;;5014433;28;20729;-35
2023/04/06 03:39:03;;;;;;;3.35;2.05;;;16.50;1.00;;;;;;5014139;28;20310;-35
2023/04/06 03:41:35;;;;;;;4.93;2.45;;;16.50;1.00;;;;;;5013202;28;20123;-35
2023/04/06 03:44:14;;;;;;;3.40;2.10;;;16.50;1.00;;;;;;4995722;28;20232;-35
2023/04/06 03:46:43;;;;;;;3.10;2.13;;;16.50;1.00;;;;;;4996413;28;20461;-35
2023/04/06 03:49:10;;;;;;;3.58;2.42;;;16.60;1.00;;;;;;4996285;28;20096;-35
2023/04/06 03:51:39;;;;;;;3.80;2.38;;;16.70;1.00;;;;;;4996031;28;20137;-35
2023/04/06 03:54:07;;;;;;;5.53;2.25;;;16.70;1.00;;;;;;4995410;28;20046;-35
2023/04/06 03:56:36;;;;;;;2.95;2.13;;;16.80;1.00;;;;;;4996269;28;20403;-35
2023/04/06 03:59:03;;;;;;;4.22;2.30;;;16.90;1.00;;;;;;4996135;28;20092;-35
2023/04/06 04:01:30;;;;;;;6.18;2.45;;;17.00;1.00;;;;;;5013707;28;20081;-35
2023/04/06 04:03:57;;;;;;;4.60;2.33;;;17.00;1.00;;;;;;5012702;28;20034;-35
2023/04/06 04:06:27;;;;;;;6.20;2.28;;;17.10;1.00;;;;;;5013972;28;20081;-35
2023/04/06 04:08:55;;;;;;;6.15;2.13;;;17.10;1.00;;;;;;5002717;23;20085;-33
2023/04/06 04:11:27;;;;;;;2.83;1.80;;;17.20;1.00;;;;;;5002505;28;20143;-34
2023/04/06 04:13:57;;;;;;;3.25;2.13;;;17.20;1.00;;;;;;4995198;28;20502;-34
2023/04/06 04:16:24;;;;;;;4.90;2.00;;;17.30;1.00;;;;;;4995755;28;20494;-34
2023/04/06 04:18:51;;;;;;;4.78;2.13;;;17.30;1.00;;;;;;4995814;28;20088;-34
2023/04/06 04:21:17;;;;;;;2.72;1.75;;;17.40;1.00;;;;;;4995713;28;20050;-34
2023/04/06 04:23:44;;;;;;;7.18;2.60;;;17.40;1.00;;;;;;4994950;28;20510;-34
2023/04/06 04:26:11;;;;;;;7.25;2.38;;;17.40;1.00;;;;;;4995456;28;20056;-34
2023/04/06 04:28:39;;;;;;;3.55;2.50;;;17.40;1.00;;;;;;4995567;28;20046;-35
2023/04/06 04:31:06;;;;;;;8.02;2.58;;;17.40;1.00;;;;;;5013383;28;20040;-35
2023/04/06 04:33:34;;;;;;;7.20;2.78;;;17.40;1.00;;;;;;4994867;28;20137;-34
2023/04/06 04:36:06;;;;;;;8.02;1.95;;;17.40;1.00;;;;;;5013293;28;20501;-34
2023/04/06 04:38:39;;;;;;;4.13;2.47;;;17.40;1.00;;;;;;4995280;28;20081;-34
2023/04/06 04:41:06;;;;;;;7.07;2.78;;;17.40;1.00;;;;;;4995484;28;20080;-34
2023/04/06 04:43:35;;;;;;;4.32;2.50;;;17.40;1.00;;;;;;4994584;28;20050;-34
2023/04/06 04:46:03;;;;;;;3.30;2.28;;;17.40;1.00;;;;;;5012926;28;20049;-34
2023/04/06 04:48:36;;;;;;;2.83;2.38;;;17.40;1.00;;;;;;4995400;28;20045;-34
2023/04/06 04:51:05;;;;;;;5.18;2.78;;;17.40;1.00;;;;;;4995188;28;20046;-34
2023/04/06 04:53:45;;;;;;;3.92;2.17;;;17.40;1.00;;;;;;4994482;28;20408;-34
2023/04/06 04:56:19;;;;;;;3.53;1.80;;;17.40;1.00;;;;;;4982884;28;20136;-34
2023/04/06 04:58:50;;;;;;;8.82;2.53;;;17.40;1.00;;;;;;4995223;28;20056;-34
2023/04/06 05:01:17;;;;;;;6.90;2.95;;;17.30;1.00;;;;;;4994886;28;20454;-34
2023/04/06 05:03:45;;;;;;;2.88;1.92;;;17.30;1.00;;;;;;4994242;28;20096;-35
2023/04/06 05:06:14;;;;;;;4.70;2.28;;;17.30;1.00;;;;;;5012506;28;20048;-35
2023/04/06 05:08:42;;;;;;;7.85;2.40;;;17.30;1.00;;;;;;4994423;28;20046;-35
2023/04/06 05:11:10;;;;;;;5.60;2.63;;;17.30;1.00;;;;;;4995060;28;20104;-35
2023/04/06 05:13:41;;;;;;;3.08;2.00;;;17.20;1.00;;;;;;4994190;28;20145;-35
2023/04/06 05:16:14;;;;;;;5.63;2.87;;;17.20;1.00;;;;;;4994620;28;20501;-35
2023/04/06 05:18:41;;;;;;;5.00;2.20;;;17.20;1.00;;;;;;5012425;28;20275;-34
2023/04/06 05:21:09;;;;;;;3.88;1.90;;;17.20;1.00;;;;;;4994795;28;20551;-34
2023/04/06 05:23:50;;;;;;;5.70;1.90;;;17.20;1.00;;;;;;4993975;28;20049;-34
2023/04/06 05:26:17;;;;;;;2.97;1.90;;;17.10;1.00;;;;;;4994951;28;20701;-34
2023/04/06 05:28:45;;;;;;;3.83;2.10;;;17.10;1.00;;;;;;4994540;28;20056;-34
2023/04/06 05:31:14;;;;;;;3.75;2.33;;;17.10;1.00;;;;;;4994461;28;20050;-34
2023/04/06 05:33:46;;;;;;;4.50;3.17;;;17.10;1.00;;;;;;4993968;28;20049;-34
2023/04/06 05:36:15;;;;;;;4.38;2.25;;;17.10;1.00;;;;;;4994549;28;20108;-34
2023/04/06 05:38:45;;;;;;;2.80;1.85;;;17.10;1.00;;;;;;5012123;28;20042;-34
2023/04/06 05:41:26;;;;;;;4.70;2.38;;;17.00;1.00;;;;;;4994459;28;20050;-34
2023/04/06 05:43:54;;;;;;;5.03;2.58;;;17.00;1.00;;;;;;4993770;28;20049;-33
2023/04/06 05:46:23;;;;;;;3.97;1.90;;;17.00;1.00;;;;;;4994344;28;20073;-35
2023/04/06 05:48:52;;;;;;;3.72;2.20;;;17.00;1.00;;;;;;4994342;28;20042;-34
2023/04/06 05:51:23;;;;;;;3.53;2.58;;;17.00;1.00;;;;;;4994391;28;20417;-34
2023/04/06 05:53:50;;;;;;;3.38;2.00;;;17.00;1.00;;;;;;4993590;28;20512;-34
2023/04/06 05:56:17;;;;;;;4.10;2.08;;;16.90;1.00;;;;;;5011942;28;20046;-34
2023/04/06 05:58:44;;;;;;;3.13;2.05;;;16.90;1.00;;;;;;4994318;28;20468;-34
2023/04/06 06:01:15;;;;;;;4.82;2.05;;;16.90;1.00;;;;;;4994394;28;20037;-34
2023/04/06 06:03:45;;;;;;;5.53;2.55;;;16.90;1.00;;;;;;4993639;28;20042;-35
2023/04/06 06:06:13;;;;;;;4.22;2.83;;;16.90;1.00;;;;;;4994042;28;20070;-34
2023/04/06 06:09:00;;;;;;;4.25;2.03;;;16.90;1.00;;;;;;5011152;28;20464;-35
2023/04/06 06:11:32;;;;;;;3.47;2.40;;;16.80;1.00;;;;;;5011970;28;20273;-34
2023/04/06 06:14:00;;;;;;;4.38;2.47;;;16.80;1.00;;;;;;5011134;28;20034;-35
2023/04/06 06:16:31;;;;;;;5.22;2.67;;;16.80;1.00;;;;;;4994089;28;20104;-35
2023/04/06 06:18:58;;;;;;;4.95;2.25;;;16.80;1.00;;;;;;4994094;28;20050;-35
2023/04/06 06:21:25;;;;;;;4.30;3.03;;;16.80;1.00;;;;;;4997219;28;20421;-34
2023/04/06 06:23:53;;;;;;;4.55;2.65;;;16.70;1.00;;;;;;4997344;28;20554;-34
2023/04/06 06:26:21;;;;;;;3.63;2.42;;;16.70;1.00;;;;;;4997775;28;20073;-34
2023/04/06 06:28:49;;;;;;;4.50;2.67;;;16.70;1.00;;;;;;4997897;28;20472;-35
2023/04/06 06:31:16;;;;;;;5.10;2.45;;;16.70;1.00;;;;;;4997529;28;20068;-34
2023/04/06 06:33:43;;;;;;;5.00;2.38;;;16.70;1.00;;;;;;4996922;28;20042;-34
2023/04/06 06:36:10;;;;;;;5.10;2.17;;;16.80;1.00;;;;;;5015254;28;20084;-34
2023/04/06 06:38:38;;;;;;;3.30;1.85;;;16.80;1.00;;;;;;4997637;28;20500;-34
2023/04/06 06:41:05;;;;;;;3.88;2.40;;;16.80;1.00;;;;;;4997562;28;20540;-34
2023/04/06 06:43:34;;;;;;;4.43;2.53;;;16.90;1.00;;;;;;4996695;28;20118;-34
2023/04/06 06:46:06;;;;;;;4.07;1.90;;;17.00;1.00;;;;;;4997563;28;20049;-34
2023/04/06 06:48:40;;;;;;;3.63;2.25;;;17.00;1.00;;;;;;5014869;28;20046;-35
2023/04/06 06:51:09;;;;;;;3.85;2.25;;;17.10;1.00;;;;;;5014968;28;20061;-34
2023/04/06 06:53:54;;;;;;;2.92;1.67;;;17.20;1.00;;;;;;4996640;28;20050;-33
2023/04/06 06:56:51;;;;;;;4.55;2.60;;;17.30;1.00;;;;;;5014552;28;20129;-34
2023/04/06 06:59:18;;;;;;;5.38;2.53;;;17.40;1.00;;;;;;4997197;28;20501;-34
2023/04/06 07:01:50;;;;;;;2.97;1.95;;;17.40;1.00;;;;;;4997245;28;20045;-34
2023/04/06 07:04:21;;;;;;;4.00;1.98;;;17.50;1.00;;;;;;5014022;28;20052;-34
2023/04/06 07:06:55;;;;;;;4.05;2.28;;;17.50;1.00;;;;;;4996879;28;20610;-34
2023/04/06 07:09:22;;;;;;;5.22;2.92;;;17.60;1.00;;;;;;4996792;28;20050;-34
2023/04/06 07:11:49;;;;;;;3.70;2.10;;;17.60;1.00;;;;;;4997167;28;20046;-34
2023/04/06 07:14:16;;;;;;;3.17;2.25;;;17.70;1.00;;;;;;4996352;28;20050;-35
2023/04/06 07:16:44;;;;;;;4.25;2.03;;;17.70;1.00;;;;;;4996806;28;20045;-34
2023/04/06 07:19:12;;;;;;;5.57;2.83;;;17.70;1.00;;;;;;4996761;28;20066;-34
2023/04/06 07:21:39;;;;;;;6.63;2.67;;;17.70;1.00;;;;;;4996784;28;20078;-34
2023/04/06 07:24:06;;;;;;;3.88;2.22;;;17.70;1.00;;;;;;4996071;28;20099;-34
2023/04/06 07:26:33;;;;;;;3.83;2.35;;;17.80;1.00;;;;;;5014240;28;20084;-34
2023/04/06 07:29:00;;;;;;;3.88;2.65;;;17.80;1.00;;;;;;4996646;28;20076;-34
2023/04/06 07:31:27;;;;;;;3.70;2.47;;;17.80;1.00;;;;;;4996102;28;20089;-34
2023/04/06 07:33:54;;;;;;;3.50;2.60;;;17.80;1.00;;;;;;4996131;28;20125;-34
2023/04/06 07:36:21;;;;;;;3.45;2.03;;;17.80;1.00;;;;;;4996506;28;20061;-34
2023/04/06 07:38:48;;;;;;;5.57;2.47;;;17.70;1.00;;;;;;4996771;28;20053;-34
2023/04/06 07:41:16;;;;;;;5.85;2.40;;;17.80;1.00;;;;;;4996397;28;20056;-34
2023/04/06 07:43:44;;;;;;;4.60;2.80;;;17.70;1.00;;;;;;5013351;28;20073;-34
2023/04/06 07:46:11;;;;;;;3.72;2.17;;;17.70;1.00;;;;;;4996214;28;20049;-34
2023/04/06 07:48:38;;;;;;;4.93;2.70;;;17.70;1.00;;;;;;5013821;28;20045;-34
2023/04/06 07:51:06;;;;;;;7.22;3.17;;;17.70;1.00;;;;;;4996349;28;20540;-34
2023/04/06 07:53:37;;;;;;;4.70;2.90;;;17.70;1.00;;;;;;4995710;28;20066;-34
2023/04/06 07:56:04;;;;;;;7.53;3.05;;;17.70;1.00;;;;;;5013739;28;20038;-34
2023/04/06 07:58:30;;;;;;;3.58;2.47;;;17.70;1.00;;;;;;5013688;28;20133;-34
2023/04/06 08:00:57;;;;;;;4.80;2.25;;;17.60;1.00;;;;;;5013339;28;20130;-34
2023/04/06 08:03:25;;;;;;;3.58;2.45;;;17.60;1.00;;;;;;5012981;28;20073;-35
2023/04/06 08:05:52;;;;;;;5.45;3.22;;;17.60;1.00;;;;;;5013548;28;20112;-35
2023/04/06 08:08:21;;;;;;;4.65;2.97;;;17.60;1.00;;;;;;5013521;28;20129;-35
2023/04/06 08:10:48;;;;;;;4.78;2.88;;;17.60;1.00;;;;;;5013595;28;20069;-34
2023/04/06 08:13:15;;;;;;;4.10;2.58;;;17.50;1.00;;;;;;5012734;28;20034;-34
2023/04/06 08:15:42;;;;;;;7.15;3.30;;;17.50;1.00;;;;;;5013486;28;20049;-33
2023/04/06 08:18:10;;;;;;;5.78;2.80;;;17.60;1.00;;;;;;5013401;28;20125;-33
2023/04/06 08:20:36;;;;;;;6.35;3.58;;;17.50;1.00;;;;;;5013406;28;20387;-34
2023/04/06 08:23:03;;;;;;;4.90;3.03;;;17.50;1.00;;;;;;5012600;28;20493;-34
2023/04/06 08:25:30;;;;;;;4.95;3.05;;;17.50;1.00;;;;;;5013214;28;20048;-34
2023/04/06 08:28:00;;;;;;;6.07;2.55;;;17.40;1.00;;;;;;5013001;28;20129;-34
2023/04/06 08:30:32;;;;;;;6.22;3.17;;;17.40;1.00;;;;;;5013054;28;20050;-35
2023/04/06 08:32:58;;;;;;;6.78;3.72;;;17.40;1.00;;;;;;5012348;28;20567;-34
2023/04/06 08:35:26;;;;;;;6.90;4.15;;;17.40;1.00;;;;;;5013218;28;20048;-35
2023/04/06 08:37:53;;;;;;;5.43;3.28;;;17.40;1.00;;;;;;5013175;28;20062;-35
2023/04/06 08:40:20;;;;;;;6.28;3.95;;;17.40;1.00;;;;;;5013006;28;20050;-34
2023/04/06 08:42:52;;;;;;;4.93;3.70;;;17.30;1.00;;;;;;5011465;28;20049;-34
2023/04/06 08:45:21;;;;;;;6.45;3.55;;;17.30;1.00;;;;;;5013051;28;20038;-34
2023/04/06 08:47:52;;;;;;;11.68;4.38;;;17.30;1.00;;;;;;5012884;28;20133;-34
2023/04/06 08:50:20;;;;;;;6.50;3.97;;;17.30;1.00;;;;;;5012896;28;20046;-34
2023/04/06 08:52:48;;;;;;;8.57;4.55;;;17.30;1.00;;;;;;5011881;28;20050;-34
2023/04/06 08:55:16;;;;;;;7.30;4.05;;;17.30;1.00;;;;;;5012843;28;20042;-34
2023/04/06 08:57:43;;;;;;;7.28;4.18;;;17.30;1.00;;;;;;5012624;28;20050;-34
2023/04/06 09:00:11;;;;;;;5.90;3.75;;;17.20;1.00;;;;;;5012686;28;20054;-34
2023/04/06 09:02:45;;;;;;;8.82;4.72;;;17.20;1.00;;;;;;5011939;28;20104;-34
2023/04/06 09:05:12;;;;;;;8.07;4.45;;;17.20;1.00;;;;;;5012550;28;20493;-34
2023/04/06 09:07:39;;;;;;;8.48;4.70;;;17.20;1.00;;;;;;5012311;28;20065;-35
2023/04/06 09:10:07;;;;;;;6.50;4.43;;;17.20;1.00;;;;;;5012445;28;20046;-35
2023/04/06 09:12:34;;;;;;;5.95;4.05;;;17.20;1.00;;;;;;5012089;28;20049;-34
2023/04/06 09:15:02;;;;;;;7.57;4.43;;;17.20;1.00;;;;;;5012352;28;20050;-34
2023/04/06 09:17:33;;;;;;;6.68;3.88;;;17.10;1.00;;;;;;5012359;28;20046;-34
2023/04/06 09:20:02;;;;;;;7.50;4.25;;;17.10;1.00;;;;;;5012256;28;20072;-34
2023/04/06 09:22:37;;;;;;;7.00;4.60;;;17.10;1.00;;;;;;5012049;28;20041;-34
2023/04/06 09:25:05;;;;;;;7.75;5.13;;;17.10;1.00;;;;;;5012495;28;20053;-34
2023/04/06 09:27:37;;;;;;;7.88;4.65;;;17.10;1.00;;;;;;5012107;28;20116;-34
2023/04/06 09:30:09;;;;;;;8.52;4.82;;;17.10;1.00;;;;;;5012298;28;20037;-34
2023/04/06 09:32:48;;;;;;;6.57;4.50;;;17.10;1.00;;;;;;5011927;28;20042;-34
2023/04/06 09:35:15;;;;;;;9.57;4.43;;;17.10;1.00;;;;;;5012106;28;20042;-35
2023/04/06 09:37:43;;;;;;;8.95;4.97;;;17.10;1.00;;;;;;5012178;28;20116;-35
2023/04/06 09:40:10;;;;;;;8.07;4.93;;;17.00;1.00;;;;;;5012226;28;20046;-35
2023/04/06 09:42:37;;;;;;;7.38;4.45;;;17.00;1.00;;;;;;5011537;28;20050;-34
2023/04/06 09:45:08;;;;;;;9.30;4.30;;;17.00;1.00;;;;;;5012407;28;20470;-35
2023/04/06 09:47:36;;;;;;;11.40;4.78;;;17.00;1.00;;;;;;5011921;28;20049;-35
2023/04/06 09:50:04;;;;;;;11.15;6.15;;;17.00;1.00;;;;;;5012013;28;20056;-35
2023/04/06 09:52:42;;;;;;;11.07;5.40;;;17.00;1.00;;;;;;5011514;28;20049;-35
2023/04/06 09:55:10;;;;;;;9.25;5.55;;;17.00;1.00;;;;;;5014790;28;20056;-35
2023/04/06 09:58:06;;;;;;;8.48;4.75;;;17.00;1.00;;;;;;5015996;28;20053;-35
2023/04/06 10:01:01;;;;;;;7.68;4.70;;;17.00;1.00;;;;;;5015968;28;20045;-35
2023/04/06 10:03:54;;;;;;;8.75;4.88;;;17.00;1.00;;;;;;5001538;28;20068;-35
2023/04/06 10:06:23;;;;;;;;;;;16.90;1.00;;;;;;5016418;28;20058;-35
2023/04/06 10:08:55;;;;;;;10.07;5.03;;;16.90;1.00;;;;;;5026319;22;19921;-34
2023/04/06 10:11:22;;;;;;;11.95;5.65;;;16.90;1.00;;;;;;5015760;28;20498;-33
2023/04/06 10:13:50;;;;;;;9.25;5.15;;;16.90;1.00;;;;;;5015111;28;20450;-38
2023/04/06 10:16:17;;;;;;;9.25;5.50;;;16.90;1.00;;;;;;5015605;28;20060;-37
2023/04/06 10:18:50;;;;;;;7.72;4.80;;;16.90;1.00;;;;;;4998163;28;20045;-35
2023/04/06 10:21:23;;;;;;;9.20;5.75;;;16.90;1.00;;;;;;5015715;28;20045;-34
2023/04/06 10:23:57;;;;;;;6.97;4.68;;;16.90;1.00;;;;;;5014921;28;20493;-37
2023/04/06 10:26:24;;;;;;;10.80;5.53;;;16.90;1.00;;;;;;5015514;28;20042;-34
2023/04/06 10:28:52;;;;;;;11.05;5.50;;;16.90;1.00;;;;;;4997605;28;20512;-38
2023/04/06 10:31:26;;;;;;;10.05;5.43;;;16.90;1.00;;;;;;5015436;28;20583;-34
2023/04/06 10:33:58;;;;;;;9.30;5.28;;;16.90;1.00;;;;;;5014688;28;20045;-38
2023/04/06 10:36:27;;;;;;;8.90;5.43;;;16.90;1.00;;;;;;5015371;28;20494;-39
2023/04/06 10:38:59;;;;;;;7.05;5.00;;;16.90;1.00;;;;;;5015289;28;20046;-33
2023/04/06 10:41:45;;;;;;;6.50;4.43;;;16.90;1.00;;;;;;5015309;28;20053;-37
2023/04/06 10:44:23;;;;;;;7.75;4.50;;;16.90;1.00;;;;;;5014438;28;20514;-37
2023/04/06 10:46:55;;;;;;;6.78;4.40;;;16.90;1.00;;;;;;5015064;28;20042;-35
2023/04/06 10:49:24;;;;;;;8.30;4.63;;;16.90;1.00;;;;;;5015072;28;20283;-36
2023/04/06 10:51:57;;;;;;;6.43;4.22;;;16.90;1.00;;;;;;5015052;28;20042;-36
2023/04/06 10:54:25;;;;;;;5.97;4.10;;;16.80;1.00;;;;;;5014329;28;20497;-37
2023/04/06 10:56:52;;;;;;;7.22;4.32;;;16.80;1.00;;;;;;5015071;28;20041;-36
2023/04/06 10:59:24;;;;;;;5.03;3.53;;;16.80;1.00;;;;;;5014740;28;20045;-34
2023/04/06 11:01:51;;;;;;;5.25;3.65;;;16.80;1.00;;;;;;4997334;28;20100;-36
2023/04/06 11:04:19;;;;;;;7.07;4.35;;;16.80;1.00;;;;;;5014002;28;20124;-38
2023/04/06 11:06:48;;;;;;;6.78;3.72;;;16.80;1.00;;;;;;5013948;28;20042;-36
2023/04/06 11:09:29;;;;;;;6.32;3.92;;;16.80;1.00;;;;;;5014617;28;20133;-34
2023/04/06 11:11:56;;;;;;;4.63;3.33;;;16.80;1.00;;;;;;5014502;28;20112;-36
2023/04/06 11:14:24;;;;;;;6.50;3.75;;;16.80;1.00;;;;;;5013914;28;20038;-38
2023/04/06 11:16:51;;;;;;;6.03;3.65;;;16.80;1.00;;;;;;5014767;28;20054;-38
2023/04/06 11:19:18;;;;;;;7.30;3.80;;;16.80;1.00;;;;;;5014416;28;20081;-36
2023/04/06 11:21:48;;;;;;;7.85;3.90;;;16.80;1.00;;;;;;5014435;28;20494;-33
2023/04/06 11:24:22;;;;;;;6.18;3.28;;;16.80;1.00;;;;;;5013844;28;20072;-35
2023/04/06 11:26:57;;;;;;;6.57;3.47;;;16.80;1.00;;;;;;5014251;28;20493;-36
2023/04/06 11:29:31;;;;;;;6.38;3.10;;;16.80;1.00;;;;;;5014233;28;20038;-37
2023/04/06 11:32:00;;;;;;;4.28;3.38;;;16.80;1.00;;;;;;5014226;28;20069;-38
2023/04/06 11:34:29;;;;;;;7.28;3.42;;;16.80;1.00;;;;;;5013589;28;20511;-36
2023/04/06 11:37:01;;;;;;;5.18;3.33;;;16.80;1.00;;;;;;5014155;28;20042;-36
2023/04/06 11:39:29;;;;;;;5.82;2.95;;;16.70;1.00;;;;;;5014049;28;20046;-36
2023/04/06 11:42:02;;;;;;;4.63;2.78;;;16.70;1.00;;;;;;5014188;28;20050;-35
2023/04/06 11:44:31;;;;;;;8.88;3.47;;;16.70;1.00;;;;;;5013280;28;20070;-35
2023/04/06 11:46:59;;;;;;;6.82;3.22;;;16.80;1.00;;;;;;5013968;28;20042;-39
2023/04/06 11:49:30;;;;;;;4.88;3.13;;;16.70;1.00;;;;;;5013881;28;20038;-37
2023/04/06 11:51:58;;;;;;;4.75;3.10;;;16.70;1.00;;;;;;5013765;28;20042;-35
2023/04/06 11:54:37;;;;;;;5.32;3.22;;;16.70;1.00;;;;;;5013081;28;20100;-34
2023/04/06 11:57:04;;;;;;;6.40;3.05;;;16.70;1.00;;;;;;5013829;28;20046;-32
2023/04/06 11:59:32;;;;;;;6.22;2.95;;;16.70;1.00;;;;;;5013686;28;20229;-38
2023/04/06 12:01:59;;;;;;;11.70;3.30;;;16.70;1.00;;;;;;5013581;28;20045;-38
2023/04/06 12:04:26;;;;;;;6.97;2.85;;;16.70;1.00;;;;;;5012942;28;20080;-36
2023/04/06 12:06:53;;;;;;;4.45;3.40;;;16.70;1.00;;;;;;5013720;28;20441;-35
2023/04/06 12:09:20;;;;;;;9.25;3.70;;;16.70;1.00;;;;;;5013470;28;20042;-32
2023/04/06 12:11:47;;;;;;;4.30;2.97;;;16.70;1.00;;;;;;5013507;28;20042;-33
2023/04/06 12:14:14;;;;;;;5.72;3.33;;;16.70;1.00;;;;;;5012906;28;20117;-34
2023/04/06 12:16:41;;;;;;;5.47;3.05;;;16.70;1.00;;;;;;5013246;28;20050;-34
2023/04/06 12:19:07;;;;;;;5.47;3.05;;;16.70;1.00;;;;;;5012413;28;20046;-34
2023/04/06 12:21:37;;;;;;;4.85;3.25;;;16.70;1.00;;;;;;5013253;28;20100;-36
2023/04/06 12:24:05;;;;;;;5.38;2.92;;;16.70;1.00;;;;;;5012636;28;20054;-36
2023/04/06 12:26:32;;;;;;;6.22;3.78;;;16.70;1.00;;;;;;5013344;28;20046;-35
2023/04/06 12:29:06;;;;;;;4.85;2.85;;;16.70;1.00;;;;;;5013131;28;20068;-37
2023/04/06 12:31:36;;;;;;;5.88;3.05;;;16.70;1.00;;;;;;5012900;28;20048;-38
2023/04/06 12:34:03;;;;;;;7.85;2.95;;;16.70;1.00;;;;;;5012323;28;20050;-38
2023/04/06 12:36:31;;;;;;;4.97;3.33;;;16.70;1.00;;;;;;5013098;28;20037;-37
2023/04/06 12:38:58;;;;;;;5.72;3.15;;;16.70;1.00;;;;;;4995647;28;20037;-35
2023/04/06 12:41:25;;;;;;;5.38;2.97;;;16.70;1.00;;;;;;5013064;28;20046;-34
2023/04/06 12:43:52;;;;;;;5.40;3.40;;;16.70;1.00;;;;;;5012130;28;20096;-34
2023/04/06 12:46:19;;;;;;;7.72;3.45;;;16.70;1.00;;;;;;5012904;28;20140;-35
2023/04/06 12:48:47;;;;;;;4.05;2.78;;;16.60;1.00;;;;;;5013029;28;20409;-37
2023/04/06 12:51:14;;;;;;;7.50;3.88;;;16.70;1.00;;;;;;5012856;28;20038;-35
2023/04/06 12:53:41;;;;;;;5.10;2.92;;;16.70;1.00;;;;;;5012093;28;20042;-35
2023/04/06 12:56:15;;;;;;;4.00;2.45;;;16.60;1.00;;;;;;5012723;28;20494;-37
2023/04/06 12:58:42;;;;;;;4.90;3.10;;;16.60;1.00;;;;;;5012481;28;20545;-34
2023/04/06 13:01:11;;;;;;;5.25;2.10;;;16.60;1.00;;;;;;5012378;28;20046;-39
2023/04/06 13:03:39;;;;;;;4.53;2.58;;;16.60;1.00;;;;;;5011908;28;20042;-37
2023/04/06 13:06:08;;;;;;;7.88;2.55;;;16.60;1.00;;;;;;5012704;28;20053;-38
2023/04/06 13:08:35;;;;;;;8.02;2.90;;;16.60;1.00;;;;;;5012424;28;20524;-35
2023/04/06 13:11:02;;;;;;;5.53;3.05;;;16.60;1.00;;;;;;5012490;28;20096;-34